KSTL/STL METAR and TAF weather

Enter ICAO airport designator
Station Type Date Time Source
KSTL METAR 2017/01/22 17:51 UTC NOAA

KSTL 221751Z 35013KT 8SM BKN008 OVC200 10/07 A2951 RMK AO2 SLP993 T01000067 10106 20089 58006


Station Type Date Time Source
KSTL Decoded METAR 2017/01/22 17:51 UTC NOAA

LAMBERT-ST LOUIS INTERNATIONAL AIRPORT , MO, United States (KSTL) 38-45N 90-22W 171M
Jan 22, 2017 - 12:51 PM EST / 2017.01.22 1751 UTC
Wind: from the N (350 degrees) at 15 MPH (13 KT):0
Visibility: 8 mile(s):0
Sky conditions: overcast
Temperature: 50.0 F (10.0 C)
Dew Point: 44.1 F (6.7 C)
Relative Humidity: 79%
Pressure (altimeter): 29.51 in. Hg (999 hPa)
Pressure tendency: 0.02 inches (0.6 hPa) lower than three hours ago
ob: KSTL 221751Z 35013KT 8SM BKN008 OVC200 10/07 A2951 RMK AO2 SLP993 T01000067 10106 20089 58006
cycle: 18

Station Type Date Time Source
KSTL TAF 2017/01/22 18:30 UTC NOAA

TAF KSTL 221729Z 2218/2324 36011KT P6SM VCSH FEW010 OVC100
TEMPO 2218/2220 BKN010
FM222300 35012G21KT P6SM OVC035
FM230500 33014KT P6SM OVC015
FM231800 32009KT P6SM BKN025


Example: see airport list